Terminal Aerodrome Forecast
Issued by NWS

Current Version | Previous Version | Text Only | Print | Product List | Glossary On
Versions: 1 2 3 4 5 6 7 8 9 10 11 12 13 14 15 16 17
000
FTUS46 KSEW 232300
TAFBFI
TAF
KBFI 232320Z 2400/2424 16005KT P6SM -RA SCT025 OVC060
     FM240200 VRB04KT 6SM -RA SCT015 OVC035
     FM240500 VRB04KT 5SM -RA BR SCT015 OVC028
     FM241200 18008KT 5SM -SHRA BR SCT015 BKN025 OVC035
     FM241800 19006KT P6SM SCT030 BKN045=

USA.gov is the U.S. government's official web portal to all federal, state and local government web resources and services.